Time;durP1;ratioP1;P1;durP2;ratioP2;P2;SDS_P1;SDS_P2;PMS_P1;PMS_P2;Temp;Humidity;BMP_temperature;BMP_pressure;BME280_temperature;BME280_humidity;BME280_pressure;Samples;Min_cycle;Max_cycle;Signal;HPM_P1;HPM_P2
2021/10/02 00:45:53;;;;;;;10.40;8.50;;;19.70;49.40;;;;;;5042540;28;20040;-62
2021/10/02 00:48:19;;;;;;;13.27;9.38;;;19.70;49.30;;;;;;5031370;28;20041;-62
2021/10/02 00:50:46;;;;;;;11.15;8.43;;;19.70;49.50;;;;;;5032693;28;20079;-62
2021/10/02 00:53:13;;;;;;;11.13;8.43;;;19.70;49.50;;;;;;5030726;28;20107;-62
2021/10/02 00:55:39;;;;;;;13.18;8.90;;;19.70;49.10;;;;;;5031968;28;20091;-62
2021/10/02 00:58:05;;;;;;;13.73;8.05;;;19.60;49.40;;;;;;5032527;28;20060;-62
2021/10/02 01:00:31;;;;;;;12.57;8.75;;;19.70;49.40;;;;;;5031110;28;20096;-62
2021/10/02 01:03:28;;;;;;;9.88;8.30;;;19.60;49.30;;;;;;5032768;28;20057;-62
2021/10/02 01:06:46;;;;;;;11.43;8.52;;;19.70;50.00;;;;;;5023875;28;20034;-62
2021/10/02 01:09:40;;;;;;;11.15;8.63;;;19.70;49.40;;;;;;5030486;28;20418;-62
2021/10/02 01:12:27;;;;;;;11.68;8.30;;;19.70;50.20;;;;;;5032925;28;20021;-62
2021/10/02 01:15:07;;;;;;;14.10;8.50;;;19.60;49.80;;;;;;5047093;28;20018;-62
2021/10/02 01:18:04;;;;;;;13.07;8.45;;;19.50;49.90;;;;;;5050102;28;20359;-62
2021/10/02 01:20:47;;;;;;;9.60;7.45;;;19.50;50.30;;;;;;5050367;28;20056;-62
2021/10/02 01:23:32;;;;;;;9.07;8.18;;;19.40;51.10;;;;;;5049555;28;20025;-61
2021/10/02 01:26:33;;;;;;;13.35;8.85;;;19.40;52.00;;;;;;5030026;28;20091;-62
2021/10/02 01:29:01;;;;;;;11.48;8.00;;;19.30;51.40;;;;;;5015400;28;20474;-62
2021/10/02 01:31:43;;;;;;;10.55;8.48;;;19.40;51.80;;;;;;5056464;28;20048;-62
2021/10/02 01:34:31;;;;;;;10.57;8.10;;;19.20;52.00;;;;;;5047868;28;20399;-62
2021/10/02 01:48:15;;;;;;;9.77;7.95;;;19.40;61.90;;;;;;5036224;28;20585;-62
2021/10/02 01:50:44;;;;;;;11.82;7.88;;;19.40;61.60;;;;;;5053776;28;20029;-62
2021/10/02 01:53:11;;;;;;;9.32;7.40;;;19.30;60.80;;;;;;5016292;28;20472;-62
2021/10/02 01:55:38;;;;;;;10.88;8.18;;;19.40;61.00;;;;;;5037535;28;20030;-62
2021/10/02 01:58:14;;;;;;;12.50;8.15;;;19.30;60.30;;;;;;5035917;28;20029;-62
2021/10/02 02:00:45;;;;;;;10.43;7.47;;;19.30;60.90;;;;;;5052859;28;20037;-62
2021/10/02 02:03:15;;;;;;;9.60;7.75;;;19.30;60.60;;;;;;5040999;28;20033;-62
2021/10/02 02:05:41;;;;;;;10.45;7.63;;;19.20;58.80;;;;;;5034701;28;20065;-62
2021/10/02 02:08:11;;;;;;;10.85;8.35;;;19.20;61.10;;;;;;5035239;28;20022;-62
2021/10/02 02:10:42;;;;;;;9.80;8.43;;;19.20;71.10;;;;;;5033441;28;20037;-62
2021/10/02 02:13:10;;;;;;;12.65;7.65;;;19.20;67.50;;;;;;5047053;28;20116;-61
2021/10/02 02:15:37;;;;;;;9.90;8.23;;;19.20;73.40;;;;;;5036166;28;20438;-62
2021/10/02 02:18:11;;;;;;;8.85;7.38;;;19.20;75.30;;;;;;5035618;28;20060;-62
2021/10/02 02:20:42;;;;;;;9.38;7.38;;;19.20;71.40;;;;;;5033712;28;20059;-62
2021/10/02 02:23:12;;;;;;;13.38;8.02;;;19.10;70.60;;;;;;5035247;28;20030;-62
2021/10/02 02:25:39;;;;;;;9.57;7.90;;;19.10;73.50;;;;;;5038622;28;20108;-62
2021/10/02 02:28:06;;;;;;;12.05;8.02;;;19.10;82.50;;;;;;5034166;28;20029;-61
2021/10/02 02:30:33;;;;;;;9.60;8.02;;;19.20;66.40;;;;;;5052830;28;20021;-61
2021/10/02 02:33:00;;;;;;;9.65;7.47;;;19.10;64.20;;;;;;5034880;28;20112;-62
2021/10/02 02:35:26;;;;;;;9.68;8.18;;;19.10;63.20;;;;;;5034079;28;20522;-61
2021/10/02 02:37:52;;;;;;;14.10;8.63;;;19.10;63.10;;;;;;5035215;28;20017;-61
2021/10/02 02:40:18;;;;;;;12.45;8.25;;;19.20;61.90;;;;;;5047658;28;20037;-61
2021/10/02 02:42:45;;;;;;;11.93;8.75;;;19.20;61.10;;;;;;5045039;28;20529;-62
2021/10/02 02:45:13;;;;;;;9.73;8.35;;;19.20;59.90;;;;;;5043523;28;20029;-62
2021/10/02 02:47:49;;;;;;;9.18;7.78;;;19.10;59.90;;;;;;5034754;28;20057;-61
2021/10/02 02:50:34;;;;;;;11.68;9.10;;;19.20;59.80;;;;;;5046470;28;20127;-62
2021/10/02 02:53:16;;;;;;;10.63;8.90;;;19.10;59.80;;;;;;5034667;28;20486;-62
2021/10/02 02:55:50;;;;;;;10.40;8.88;;;19.10;59.80;;;;;;5037754;28;20033;-61
2021/10/02 02:58:18;;;;;;;11.30;9.40;;;19.00;60.00;;;;;;5013789;28;20080;-62
2021/10/02 03:00:56;;;;;;;12.73;9.25;;;19.00;59.50;;;;;;5030463;28;20388;-62
2021/10/02 03:03:28;;;;;;;12.95;9.45;;;18.90;60.10;;;;;;5034941;28;20124;-62
2021/10/02 03:06:06;;;;;;;9.13;8.23;;;19.00;59.20;;;;;;5050234;28;20043;-61
2021/10/02 03:08:34;;;;;;;13.02;9.55;;;19.10;60.70;;;;;;5054880;28;20025;-62
2021/10/02 03:11:03;;;;;;;12.50;9.20;;;19.00;60.60;;;;;;5032727;28;20577;-62
2021/10/02 03:13:30;;;;;;;11.88;9.68;;;19.00;61.30;;;;;;5033628;28;20018;-61
2021/10/02 03:15:57;;;;;;;14.68;10.05;;;19.00;61.20;;;;;;5033593;28;20033;-61
2021/10/02 03:18:25;;;;;;;10.65;8.95;;;18.90;60.90;;;;;;5034847;28;20018;-61
2021/10/02 03:20:53;;;;;;;16.52;9.73;;;19.00;61.00;;;;;;5032735;28;20040;-62
2021/10/02 03:23:20;;;;;;;13.93;10.40;;;19.00;62.10;;;;;;5034372;28;20049;-61
2021/10/02 03:25:47;;;;;;;13.05;9.82;;;18.80;63.40;;;;;;5033289;28;20029;-62
2021/10/02 03:28:13;;;;;;;12.23;9.48;;;18.90;65.20;;;;;;5033944;28;20112;-61
2021/10/02 03:30:39;;;;;;;14.35;10.93;;;18.70;62.40;;;;;;5047717;28;20025;-61
2021/10/02 03:33:05;;;;;;;11.05;9.90;;;18.80;60.80;;;;;;5034105;28;20029;-62
2021/10/02 03:35:31;;;;;;;12.43;10.20;;;18.70;59.30;;;;;;5033288;28;20029;-61
2021/10/02 03:37:56;;;;;;;13.77;10.20;;;18.80;59.00;;;;;;5032758;28;20032;-62
2021/10/02 03:40:22;;;;;;;12.07;10.88;;;18.80;60.70;;;;;;5030726;28;20479;-62
2021/10/02 03:42:56;;;;;;;13.45;10.82;;;18.70;61.10;;;;;;5032237;28;20033;-62
2021/10/02 03:45:24;;;;;;;13.77;10.77;;;18.70;61.00;;;;;;5033036;28;20068;-62
2021/10/02 03:47:49;;;;;;;14.80;11.02;;;18.70;61.90;;;;;;5033216;28;20025;-62
2021/10/02 03:50:15;;;;;;;12.52;10.73;;;18.70;59.70;;;;;;5032807;28;20120;-62
2021/10/02 03:52:42;;;;;;;12.73;10.95;;;18.80;60.10;;;;;;5033362;28;20021;-62
2021/10/02 03:55:11;;;;;;;17.58;11.77;;;18.80;62.50;;;;;;5038497;28;20029;-61
2021/10/02 03:57:37;;;;;;;12.18;10.73;;;18.80;62.70;;;;;;5033409;28;20029;-62
2021/10/02 04:00:04;;;;;;;15.23;11.57;;;18.70;63.10;;;;;;5041180;28;20139;-61
2021/10/02 04:02:30;;;;;;;12.98;11.60;;;18.70;63.50;;;;;;5019345;28;20510;-62
2021/10/02 04:04:55;;;;;;;14.68;11.82;;;18.70;64.20;;;;;;5021294;28;20029;-62
2021/10/02 04:07:21;;;;;;;13.32;11.50;;;18.70;61.90;;;;;;5033605;28;20033;-62
2021/10/02 04:09:47;;;;;;;13.45;11.68;;;18.80;63.80;;;;;;5026208;28;20022;-62
2021/10/02 04:12:13;;;;;;;16.10;12.38;;;18.80;60.30;;;;;;5029659;28;20017;-61
2021/10/02 04:14:39;;;;;;;12.95;11.60;;;18.70;60.90;;;;;;5030744;28;20044;-61
2021/10/02 04:17:04;;;;;;;14.10;12.57;;;18.80;63.70;;;;;;5033295;28;20533;-62
2021/10/02 04:19:30;;;;;;;13.55;11.95;;;18.90;65.80;;;;;;5035432;28;20033;-62
2021/10/02 04:21:56;;;;;;;13.88;12.57;;;18.90;60.60;;;;;;5040784;28;20495;-61
2021/10/02 04:24:23;;;;;;;13.73;12.00;;;18.80;64.50;;;;;;5032246;28;20052;-62
2021/10/02 04:26:49;;;;;;;13.18;11.77;;;18.80;62.70;;;;;;5033139;28;20040;-61
2021/10/02 04:29:14;;;;;;;14.15;12.75;;;18.90;62.80;;;;;;5031133;28;20029;-61
2021/10/02 04:31:41;;;;;;;14.05;12.65;;;19.00;64.60;;;;;;5044099;28;20030;-61
2021/10/02 04:34:06;;;;;;;15.70;13.20;;;18.90;67.70;;;;;;5032038;28;20025;-61
2021/10/02 04:36:33;;;;;;;17.67;13.25;;;18.90;64.70;;;;;;5032881;28;20029;-62
2021/10/02 04:38:59;;;;;;;13.98;12.57;;;18.90;62.50;;;;;;5031806;28;20387;-62
2021/10/02 04:41:25;;;;;;;16.42;13.52;;;18.90;67.80;;;;;;5033283;28;20048;-62
2021/10/02 04:43:50;;;;;;;14.57;12.98;;;18.90;65.40;;;;;;5036951;28;20029;-61
2021/10/02 04:46:18;;;;;;;17.67;12.60;;;18.90;68.20;;;;;;5032110;28;20049;-62
2021/10/02 04:48:45;;;;;;;19.42;12.90;;;18.90;60.60;;;;;;5033024;28;20018;-61
2021/10/02 04:51:11;;;;;;;16.65;13.27;;;18.80;66.40;;;;;;5041987;28;20056;-61
2021/10/02 04:53:38;;;;;;;14.00;11.80;;;18.80;65.10;;;;;;5032732;28;20026;-62
2021/10/02 04:56:13;;;;;;;13.88;11.88;;;18.80;62.10;;;;;;5017087;28;20041;-61
2021/10/02 04:58:39;;;;;;;13.75;12.35;;;18.80;65.50;;;;;;5013212;28;20049;-62
2021/10/02 05:01:08;;;;;;;13.95;11.88;;;18.80;59.50;;;;;;5026264;28;20084;-62
2021/10/02 05:03:36;;;;;;;13.98;11.50;;;18.80;59.70;;;;;;5028337;28;20080;-62
2021/10/02 05:06:03;;;;;;;16.73;13.13;;;18.80;59.70;;;;;;5026607;28;20036;-61
2021/10/02 05:08:30;;;;;;;11.55;10.43;;;18.70;60.60;;;;;;5032106;28;20490;-61
2021/10/02 05:10:56;;;;;;;14.07;11.48;;;18.70;61.90;;;;;;5029363;28;20395;-62
2021/10/02 05:13:22;;;;;;;12.10;10.52;;;18.70;60.40;;;;;;5032109;28;20131;-62
2021/10/02 05:15:47;;;;;;;13.77;11.18;;;18.80;63.50;;;;;;5031612;28;20497;-61
2021/10/02 05:18:13;;;;;;;15.18;11.20;;;18.80;59.20;;;;;;5031990;28;20037;-61
2021/10/02 05:20:39;;;;;;;12.32;11.02;;;18.80;58.10;;;;;;5041610;28;20033;-61
2021/10/02 05:23:04;;;;;;;13.15;11.77;;;18.70;59.30;;;;;;5034641;28;20506;-61
2021/10/02 05:25:31;;;;;;;18.20;10.95;;;18.70;62.50;;;;;;5031644;28;20034;-62
2021/10/02 05:27:56;;;;;;;16.67;10.65;;;18.60;63.80;;;;;;5032487;28;20167;-62
2021/10/02 05:30:22;;;;;;;12.05;10.00;;;18.70;67.20;;;;;;5038865;28;20450;-62
2021/10/02 05:32:48;;;;;;;12.45;9.88;;;18.60;66.00;;;;;;5035892;28;20029;-62
2021/10/02 05:35:13;;;;;;;13.27;10.48;;;18.70;69.20;;;;;;5031763;28;20087;-62
2021/10/02 05:37:39;;;;;;;15.35;10.60;;;18.70;68.80;;;;;;5032404;28;20464;-62
2021/10/02 05:40:06;;;;;;;12.50;10.32;;;18.60;66.20;;;;;;5027353;28;20495;-62
2021/10/02 05:42:32;;;;;;;11.88;10.55;;;18.60;63.60;;;;;;5031117;28;20112;-62
2021/10/02 05:44:57;;;;;;;12.95;10.80;;;18.50;61.20;;;;;;5031538;28;20049;-62
2021/10/02 05:47:23;;;;;;;13.40;10.63;;;18.50;61.40;;;;;;5031976;28;20371;-61
2021/10/02 05:49:48;;;;;;;13.40;10.02;;;18.50;60.80;;;;;;5033333;28;20465;-62
2021/10/02 05:52:14;;;;;;;14.13;10.90;;;18.40;62.80;;;;;;5040864;28;20111;-62
2021/10/02 05:54:40;;;;;;;15.00;10.70;;;18.30;53.90;;;;;;5031238;28;20060;-62
2021/10/02 05:57:07;;;;;;;12.45;10.43;;;18.30;53.80;;;;;;5031898;28;20454;-62
2021/10/02 05:59:33;;;;;;;13.70;10.50;;;18.30;54.70;;;;;;5030851;28;20049;-61
2021/10/02 06:01:58;;;;;;;17.88;10.80;;;18.30;52.90;;;;;;5031701;28;20091;-62
2021/10/02 06:04:24;;;;;;;13.95;10.82;;;18.30;52.10;;;;;;5034042;28;20033;-62
2021/10/02 06:06:49;;;;;;;17.55;11.30;;;18.30;52.10;;;;;;5053308;28;20131;-61
2021/10/02 06:09:15;;;;;;;16.33;9.85;;;18.40;51.60;;;;;;5044629;28;20029;-62
2021/10/02 06:11:41;;;;;;;13.75;10.95;;;18.30;51.60;;;;;;5032937;28;20025;-62
2021/10/02 06:14:07;;;;;;;13.00;9.77;;;18.40;51.30;;;;;;5034224;28;20105;-62
2021/10/02 06:16:34;;;;;;;12.82;10.15;;;18.40;51.50;;;;;;5049675;28;20036;-62
2021/10/02 06:19:00;;;;;;;12.52;10.57;;;18.40;50.90;;;;;;5048557;28;20021;-61
2021/10/02 06:21:26;;;;;;;12.23;10.35;;;18.50;51.20;;;;;;5034141;28;20103;-62
2021/10/02 06:23:51;;;;;;;14.90;11.05;;;18.40;50.60;;;;;;5035091;28;20117;-62
2021/10/02 06:26:17;;;;;;;13.77;10.90;;;18.50;50.80;;;;;;5041351;28;20489;-61
2021/10/02 06:28:42;;;;;;;12.10;9.48;;;18.50;50.60;;;;;;5034947;28;20038;-61
2021/10/02 06:31:08;;;;;;;12.90;10.18;;;18.50;50.40;;;;;;5034374;28;20029;-61
2021/10/02 06:33:34;;;;;;;11.32;9.48;;;18.50;50.10;;;;;;5034423;28;20029;-61
2021/10/02 06:35:59;;;;;;;13.88;9.88;;;18.50;50.20;;;;;;5033542;28;20029;-61
2021/10/02 06:38:25;;;;;;;11.57;9.82;;;18.40;50.00;;;;;;5034789;28;20451;-61
2021/10/02 06:40:50;;;;;;;10.85;9.38;;;18.30;49.90;;;;;;5040294;28;20041;-61
2021/10/02 06:43:16;;;;;;;10.23;9.10;;;18.30;49.80;;;;;;5034924;28;20125;-62
2021/10/02 06:45:42;;;;;;;11.90;8.55;;;18.40;49.80;;;;;;5034154;28;20112;-62
2021/10/02 06:48:08;;;;;;;10.15;8.38;;;18.30;49.30;;;;;;5035041;28;20177;-61
2021/10/02 06:50:35;;;;;;;12.23;9.00;;;18.30;49.40;;;;;;5033252;28;20535;-62
2021/10/02 06:53:01;;;;;;;11.15;8.68;;;18.40;49.40;;;;;;5034979;28;20037;-61
2021/10/02 06:55:27;;;;;;;10.85;8.90;;;18.40;49.10;;;;;;5032708;28;20096;-62
2021/10/02 06:57:53;;;;;;;10.05;8.73;;;18.40;49.20;;;;;;5033995;28;20037;-62
2021/10/02 07:00:19;;;;;;;9.95;8.43;;;18.40;49.20;;;;;;5032721;28;20116;-63
2021/10/02 07:02:45;;;;;;;10.43;9.27;;;18.40;49.40;;;;;;5036692;28;20245;-62
2021/10/02 07:05:15;;;;;;;12.35;9.02;;;18.50;49.00;;;;;;5032966;28;20036;-63
2021/10/02 07:07:41;;;;;;;10.73;9.43;;;18.50;48.90;;;;;;5034087;28;20556;-62
2021/10/02 07:10:10;;;;;;;11.20;9.90;;;18.50;48.90;;;;;;5035465;28;20029;-62
2021/10/02 07:12:36;;;;;;;12.48;10.27;;;18.40;48.80;;;;;;5046456;28;20472;-62
2021/10/02 07:15:07;;;;;;;14.05;9.98;;;18.50;49.20;;;;;;5031915;28;20075;-65
2021/10/02 07:17:32;;;;;;;18.77;10.02;;;18.50;49.60;;;;;;5034122;28;20029;-62
2021/10/02 07:19:58;;;;;;;12.20;9.77;;;18.50;49.10;;;;;;5031163;28;20103;-62
2021/10/02 07:22:24;;;;;;;13.70;9.32;;;18.50;49.10;;;;;;5049575;28;20044;-63
2021/10/02 07:24:50;;;;;;;10.52;9.45;;;18.60;49.00;;;;;;5032911;28;20085;-62
2021/10/02 07:27:15;;;;;;;11.38;9.93;;;18.60;48.90;;;;;;5032950;28;20038;-63
2021/10/02 07:29:41;;;;;;;12.02;9.38;;;18.60;48.70;;;;;;5031548;28;20033;-63
2021/10/02 07:32:07;;;;;;;11.85;9.27;;;18.60;48.80;;;;;;5032711;28;20084;-63
2021/10/02 07:34:32;;;;;;;11.60;9.93;;;18.70;48.70;;;;;;5032225;28;20076;-63
2021/10/02 07:36:58;;;;;;;10.98;9.57;;;18.80;48.50;;;;;;5049174;28;20036;-63
2021/10/02 07:39:24;;;;;;;14.02;9.93;;;18.80;48.60;;;;;;5043586;28;20480;-63
2021/10/02 07:41:51;;;;;;;17.60;10.55;;;18.70;48.10;;;;;;5046985;28;20453;-63
2021/10/02 07:44:24;;;;;;;12.32;9.55;;;18.80;48.30;;;;;;5037624;28;20145;-63
2021/10/02 07:46:53;;;;;;;10.40;8.83;;;18.90;47.80;;;;;;5048093;28;20037;-63
2021/10/02 07:49:20;;;;;;;11.48;9.65;;;18.80;47.90;;;;;;5033436;28;20278;-63
2021/10/02 07:51:47;;;;;;;12.25;10.23;;;18.90;47.80;;;;;;5033101;28;20414;-63
2021/10/02 07:54:13;;;;;;;11.48;9.95;;;19.00;47.00;;;;;;5033103;28;20026;-63
2021/10/02 07:56:42;;;;;;;14.55;9.73;;;19.10;47.80;;;;;;5042193;28;20159;-63
2021/10/02 07:59:08;;;;;;;12.07;9.35;;;19.20;48.00;;;;;;5033133;28;20132;-63
2021/10/02 08:01:34;;;;;;;10.32;9.32;;;19.30;46.60;;;;;;5032079;28;20484;-63
2021/10/02 08:04:08;;;;;;;10.73;9.63;;;19.40;46.50;;;;;;5033049;28;20092;-63
2021/10/02 08:06:35;;;;;;;12.20;9.60;;;19.70;46.20;;;;;;5032259;28;20033;-63
2021/10/02 08:09:01;;;;;;;10.30;9.27;;;19.70;45.80;;;;;;5030203;28;20041;-63
2021/10/02 08:11:28;;;;;;;10.52;9.02;;;20.00;45.60;;;;;;5031531;28;20040;-63
2021/10/02 08:13:54;;;;;;;10.27;9.30;;;20.10;44.70;;;;;;5032059;28;20029;-63
2021/10/02 08:16:25;;;;;;;10.48;9.40;;;20.30;44.40;;;;;;5030502;28;20506;-63
2021/10/02 08:18:55;;;;;;;10.93;9.77;;;20.20;43.80;;;;;;5032514;28;20025;-63
2021/10/02 08:21:21;;;;;;;11.75;10.13;;;20.30;44.50;;;;;;5029272;28;20041;-63
2021/10/02 08:23:47;;;;;;;12.40;9.65;;;20.40;44.20;;;;;;5032449;28;20076;-63
2021/10/02 08:26:16;;;;;;;11.32;10.13;;;20.50;44.00;;;;;;5038195;28;20033;-62
2021/10/02 08:28:50;;;;;;;12.75;9.68;;;20.60;43.90;;;;;;5034248;28;20021;-62
2021/10/02 08:31:19;;;;;;;16.08;10.15;;;20.70;43.10;;;;;;5029145;28;20025;-62
2021/10/02 08:33:45;;;;;;;13.98;10.35;;;20.50;43.40;;;;;;5031726;28;20021;-62
2021/10/02 08:36:11;;;;;;;12.00;9.90;;;20.40;43.30;;;;;;5032157;28;20025;-62
2021/10/02 08:38:38;;;;;;;10.05;9.05;;;20.40;43.30;;;;;;5032219;28;20352;-62
2021/10/02 08:41:05;;;;;;;13.68;9.43;;;20.50;43.60;;;;;;5029621;28;20029;-62
2021/10/02 08:43:32;;;;;;;10.07;9.13;;;20.60;43.50;;;;;;5031836;28;20040;-62
2021/10/02 08:46:01;;;;;;;11.15;8.85;;;20.70;43.30;;;;;;5032189;28;20025;-62
2021/10/02 08:48:27;;;;;;;10.90;9.38;;;20.70;43.10;;;;;;5030050;28;20547;-62
2021/10/02 08:50:56;;;;;;;9.95;8.77;;;20.80;43.20;;;;;;5031659;28;20025;-62
2021/10/02 08:53:25;;;;;;;11.90;10.07;;;20.80;43.00;;;;;;5032449;28;20057;-62
2021/10/02 08:55:51;;;;;;;10.07;9.07;;;20.80;42.90;;;;;;5024067;28;20101;-63
2021/10/02 08:58:18;;;;;;;13.32;10.23;;;20.90;42.50;;;;;;5034021;28;20386;-64
2021/10/02 09:00:43;;;;;;;13.98;10.35;;;21.10;42.30;;;;;;5032653;28;20057;-62
2021/10/02 09:03:09;;;;;;;10.35;9.32;;;20.90;41.90;;;;;;5037706;28;20139;-63
2021/10/02 09:05:35;;;;;;;13.38;10.05;;;21.00;42.10;;;;;;5030839;28;20502;-62
2021/10/02 09:08:01;;;;;;;9.90;9.02;;;20.90;42.20;;;;;;5030028;28;20112;-63
2021/10/02 09:10:30;;;;;;;13.98;9.85;;;21.00;42.10;;;;;;5030718;28;20040;-62
2021/10/02 09:12:56;;;;;;;14.40;9.40;;;20.90;42.30;;;;;;5031917;28;20033;-62
2021/10/02 09:15:21;;;;;;;10.30;9.30;;;21.00;42.40;;;;;;5031884;28;20121;-62
2021/10/02 09:17:47;;;;;;;10.05;9.02;;;21.00;41.70;;;;;;5029878;28;20108;-63
2021/10/02 09:20:15;;;;;;;12.70;9.63;;;21.00;42.00;;;;;;5031243;28;20483;-63
2021/10/02 09:22:51;;;;;;;13.70;10.13;;;21.10;41.70;;;;;;5036738;28;20029;-62
2021/10/02 09:25:16;;;;;;;10.38;9.18;;;21.20;42.30;;;;;;5030919;28;20375;-62
2021/10/02 09:27:42;;;;;;;11.07;9.25;;;21.20;41.70;;;;;;5035382;28;20049;-62
2021/10/02 09:30:11;;;;;;;10.95;9.70;;;21.10;41.90;;;;;;5031120;28;20048;-61
2021/10/02 09:32:46;;;;;;;11.95;10.30;;;20.90;42.00;;;;;;5033229;28;20029;-61
2021/10/02 09:35:14;;;;;;;11.43;8.95;;;21.00;42.60;;;;;;5032173;28;20113;-61
2021/10/02 09:37:45;;;;;;;11.57;10.38;;;21.00;42.30;;;;;;5031370;28;20498;-61
2021/10/02 09:40:23;;;;;;;13.82;11.23;;;21.10;42.20;;;;;;5030432;28;20025;-62
2021/10/02 09:42:55;;;;;;;14.57;11.93;;;21.00;42.10;;;;;;5035691;28;20132;-62
2021/10/02 09:45:36;;;;;;;12.82;9.70;;;20.90;42.60;;;;;;5031423;28;20045;-62
2021/10/02 09:48:04;;;;;;;11.20;9.60;;;20.80;42.40;;;;;;5032987;28;20033;-63
2021/10/02 09:50:36;;;;;;;10.43;9.43;;;21.00;42.80;;;;;;5036218;28;20105;-62
2021/10/02 09:53:08;;;;;;;12.00;9.20;;;21.10;42.10;;;;;;5054342;28;20478;-61
2021/10/02 09:55:43;;;;;;;11.70;10.48;;;21.20;42.10;;;;;;5051474;28;20018;-63
2021/10/02 09:58:16;;;;;;;9.85;8.85;;;21.40;41.90;;;;;;5036039;28;20025;-62
2021/10/02 10:00:48;;;;;;;13.30;9.30;;;21.40;41.30;;;;;;5033544;28;20048;-61
2021/10/02 10:03:16;;;;;;;12.20;9.30;;;21.30;41.70;;;;;;5035441;28;20033;-62
2021/10/02 10:05:52;;;;;;;9.95;8.95;;;21.40;41.70;;;;;;5034939;28;20033;-62
2021/10/02 10:08:26;;;;;;;11.23;9.07;;;21.40;41.50;;;;;;5034775;28;20371;-61
2021/10/02 10:11:04;;;;;;;9.18;8.10;;;21.40;41.40;;;;;;5035178;28;20025;-63
2021/10/02 10:13:29;;;;;;;7.90;7.10;;;21.40;42.00;;;;;;5033352;28;20021;-61
2021/10/02 10:15:57;;;;;;;8.38;7.57;;;21.40;41.60;;;;;;5034077;28;20182;-62
2021/10/02 10:18:29;;;;;;;9.20;8.00;;;21.40;41.20;;;;;;5034265;28;20483;-61
2021/10/02 10:20:57;;;;;;;8.05;6.72;;;21.40;40.50;;;;;;5032560;28;20446;-62
2021/10/02 10:23:32;;;;;;;9.27;6.72;;;21.40;40.80;;;;;;5024737;28;20057;-62
2021/10/02 10:26:06;;;;;;;8.27;6.82;;;21.50;40.90;;;;;;5029844;28;20500;-62
2021/10/02 10:28:36;;;;;;;7.25;6.40;;;21.60;40.20;;;;;;5035838;28;20029;-62
2021/10/02 10:31:27;;;;;;;8.32;7.30;;;21.50;39.40;;;;;;5037922;28;20056;-62
2021/10/02 10:33:57;;;;;;;7.03;5.65;;;21.50;38.40;;;;;;5048737;28;20033;-62
2021/10/02 10:36:26;;;;;;;6.22;5.43;;;21.50;38.80;;;;;;5053067;28;20025;-62
2021/10/02 10:38:51;;;;;;;6.95;5.43;;;21.60;38.20;;;;;;5040540;28;20444;-62
2021/10/02 10:41:19;;;;;;;4.20;3.80;;;21.50;38.00;;;;;;5034134;28;20105;-62
2021/10/02 10:43:45;;;;;;;7.47;4.43;;;21.60;36.50;;;;;;5034161;28;20040;-62
2021/10/02 10:46:13;;;;;;;6.95;5.97;;;21.70;36.90;;;;;;5037617;28;20037;-61
2021/10/02 10:48:40;;;;;;;10.23;7.05;;;21.80;36.40;;;;;;5036409;28;20100;-62
2021/10/02 10:51:09;;;;;;;8.20;5.80;;;21.80;36.50;;;;;;5022235;28;20033;-61
2021/10/02 10:53:45;;;;;;;9.63;6.43;;;21.90;35.90;;;;;;5032979;28;20022;-61
2021/10/02 10:56:14;;;;;;;7.20;6.60;;;21.90;37.10;;;;;;5033683;28;20036;-62
2021/10/02 10:58:41;;;;;;;8.05;6.25;;;22.00;37.90;;;;;;5022284;28;20025;-63
2021/10/02 11:01:11;;;;;;;7.85;7.05;;;22.00;38.10;;;;;;5037614;28;20045;-61
2021/10/02 11:03:41;;;;;;;13.95;8.45;;;22.10;39.00;;;;;;5033288;28;20029;-63
2021/10/02 11:06:15;;;;;;;10.50;7.40;;;22.10;38.90;;;;;;5031748;28;20025;-62
2021/10/02 11:08:56;;;;;;;7.15;5.65;;;22.10;39.40;;;;;;5034506;28;20071;-62
2021/10/02 11:11:44;;;;;;;6.50;5.50;;;22.30;37.50;;;;;;5030950;28;20022;-62
2021/10/02 11:14:18;;;;;;;5.15;4.68;;;22.30;37.10;;;;;;5020788;28;20434;-61
2021/10/02 11:16:45;;;;;;;6.68;4.72;;;22.30;35.90;;;;;;5041063;28;20129;-62
2021/10/02 11:19:31;;;;;;;7.30;4.78;;;22.30;37.30;;;;;;5034693;28;20032;-62
2021/10/02 11:22:37;;;;;;;6.85;5.68;;;22.40;35.60;;;;;;5033018;28;20034;-62
2021/10/02 11:25:19;;;;;;;9.05;6.63;;;22.40;36.50;;;;;;5032927;28;20025;-62
2021/10/02 11:27:45;;;;;;;6.97;6.25;;;22.50;36.40;;;;;;5030635;28;20030;-63
2021/10/02 11:30:15;;;;;;;7.72;6.97;;;22.60;37.70;;;;;;5034188;28;20124;-63
2021/10/02 11:32:41;;;;;;;10.93;8.15;;;22.60;38.90;;;;;;5032931;28;20034;-62
2021/10/02 11:35:30;;;;;;;7.55;6.78;;;22.70;38.40;;;;;;5040972;28;20168;-63
2021/10/02 11:37:56;;;;;;;7.35;6.70;;;22.80;34.50;;;;;;5043691;28;20531;-63
2021/10/02 11:40:36;;;;;;;9.20;7.10;;;22.90;36.40;;;;;;5027710;28;20161;-63
2021/10/02 11:43:18;;;;;;;6.72;5.78;;;23.00;44.60;;;;;;5045941;28;20044;-63
2021/10/02 11:45:43;;;;;;;6.90;5.40;;;23.10;48.10;;;;;;5052783;28;20105;-63
2021/10/02 11:48:19;;;;;;;7.43;5.53;;;23.10;47.30;;;;;;5043544;28;20080;-62
2021/10/02 11:50:48;;;;;;;6.45;4.78;;;23.30;39.80;;;;;;5032077;28;20071;-62
2021/10/02 11:53:17;;;;;;;5.38;4.75;;;23.30;34.10;;;;;;5035243;28;20511;-62
2021/10/02 11:55:42;;;;;;;6.63;5.60;;;23.40;34.00;;;;;;5053599;28;20029;-62
2021/10/02 11:58:11;;;;;;;9.93;5.93;;;23.40;44.70;;;;;;5032884;28;20391;-62
2021/10/02 12:00:54;;;;;;;6.65;5.93;;;23.40;32.60;;;;;;5032523;28;20502;-62
2021/10/02 12:03:34;;;;;;;6.57;5.90;;;23.60;28.30;;;;;;5025396;28;20029;-62
2021/10/02 12:06:02;;;;;;;7.88;6.82;;;23.80;28.40;;;;;;5031493;28;20029;-62
2021/10/02 12:08:30;;;;;;;9.85;6.57;;;24.00;30.50;;;;;;5032882;28;20041;-62
2021/10/02 12:11:03;;;;;;;7.20;6.35;;;24.00;33.00;;;;;;5031721;28;20119;-62
2021/10/02 12:13:49;;;;;;;7.00;6.20;;;24.10;36.40;;;;;;5029203;28;20030;-62
2021/10/02 12:16:23;;;;;;;7.47;6.70;;;24.20;31.90;;;;;;5029510;28;20108;-62
2021/10/02 12:18:58;;;;;;;;;;;24.60;38.80;;;;;;5030220;28;20040;-62
2021/10/02 12:21:23;;;;;;;;;;;24.70;50.10;;;;;;5031761;28;19913;-62
2021/10/02 12:23:56;;;;;;;7.63;6.65;;;25.10;38.40;;;;;;5037583;28;20358;-62
2021/10/02 12:26:23;;;;;;;7.95;7.15;;;26.00;54.40;;;;;;5033120;28;20073;-62
2021/10/02 12:28:56;;;;;;;10.60;7.07;;;27.60;26.80;;;;;;5043423;28;20105;-62
2021/10/02 12:31:21;;;;;;;12.77;7.50;;;28.80;21.80;;;;;;5048340;28;20094;-62
2021/10/02 12:33:47;;;;;;;8.05;7.22;;;28.60;22.20;;;;;;5032063;28;20073;-62
2021/10/02 12:36:13;;;;;;;7.88;7.15;;;29.70;20.70;;;;;;5033649;28;20418;-62
2021/10/02 12:38:42;;;;;;;7.60;6.80;;;;;;;;;;5045431;28;20120;-63
2021/10/02 12:41:08;;;;;;;10.38;9.32;;;29.50;46.10;;;;;;5036612;28;20037;-62
2021/10/02 12:43:34;;;;;;;9.00;8.10;;;30.60;47.10;;;;;;5032686;28;20063;-62
2021/10/02 12:46:13;;;;;;;9.70;8.75;;;31.10;46.90;;;;;;5031296;28;20199;-62
2021/10/02 12:48:39;;;;;;;9.32;8.43;;;;;;;;;;5032717;28;20021;-62
2021/10/02 12:51:09;;;;;;;9.57;8.70;;;;;;;;;;5030792;28;20029;-62
2021/10/02 12:53:35;;;;;;;9.60;8.38;;;32.10;41.90;;;;;;5027710;28;20030;-62
2021/10/02 12:56:17;;;;;;;10.63;7.88;;;31.80;45.70;;;;;;5032644;28;20049;-62
2021/10/02 12:58:43;;;;;;;11.48;7.60;;;32.20;41.50;;;;;;5032539;28;20026;-62
2021/10/02 13:01:09;;;;;;;9.50;7.97;;;32.60;44.70;;;;;;5029434;28;20045;-62
2021/10/02 13:03:42;;;;;;;8.10;6.97;;;;;;;;;;5052469;28;20055;-62
2021/10/02 13:06:08;;;;;;;8.57;7.47;;;32.80;44.50;;;;;;5051606;28;20029;-63
2021/10/02 13:08:34;;;;;;;8.60;7.82;;;;;;;;;;5032489;28;20029;-63
2021/10/02 13:11:00;;;;;;;11.13;7.95;;;31.00;45.70;;;;;;5032178;28;20048;-60
2021/10/02 13:13:26;;;;;;;11.65;8.38;;;30.80;46.00;;;;;;5049293;28;20100;-60
2021/10/02 13:15:53;;;;;;;9.18;7.63;;;;;;;;;;5052532;28;20060;-61
2021/10/02 13:18:29;;;;;;;8.35;7.07;;;29.50;46.90;;;;;;5035784;28;20135;-61
2021/10/02 13:21:06;;;;;;;8.45;7.57;;;28.60;46.70;;;;;;5031156;28;20051;-62
2021/10/02 13:23:36;;;;;;;8.43;7.43;;;;;;;;;;5031749;28;20026;-62
2021/10/02 13:26:09;;;;;;;7.82;7.03;;;27.00;52.10;;;;;;5032328;28;20030;-61
2021/10/02 13:28:39;;;;;;;7.43;6.55;;;26.90;28.50;;;;;;5049415;28;20490;-61
2021/10/02 13:31:07;;;;;;;8.27;6.50;;;;;;;;;;5040848;28;20029;-61
2021/10/02 13:33:45;;;;;;;8.30;7.50;;;26.50;35.60;;;;;;5049684;28;20033;-62
2021/10/02 13:36:26;;;;;;;9.63;8.73;;;26.30;31.90;;;;;;5040309;28;20546;-62
2021/10/02 13:38:52;;;;;;;11.27;8.98;;;25.70;21.40;;;;;;5012580;28;20107;-62
2021/10/02 13:41:18;;;;;;;7.57;6.78;;;25.70;22.60;;;;;;5030127;28;20430;-62
2021/10/02 13:43:56;;;;;;;8.77;7.85;;;25.60;22.80;;;;;;5031967;28;20076;-61
2021/10/02 13:46:28;;;;;;;9.77;8.82;;;25.50;23.00;;;;;;5031335;28;20075;-62
2021/10/02 13:48:55;;;;;;;9.30;7.53;;;25.60;22.80;;;;;;5025611;28;20029;-62